Time;durP1;ratioP1;P1;durP2;ratioP2;P2;SDS_P1;SDS_P2;PMS_P1;PMS_P2;Temp;Humidity;BMP_temperature;BMP_pressure;BME280_temperature;BME280_humidity;BME280_pressure;Samples;Min_cycle;Max_cycle;Signal;HPM_P1;HPM_P2
2023/09/22 00:01:54;;;;;;;0.93;0.40;;;21.50;99.90;;;;;;5011716;28;20046;-39
2023/09/22 00:04:20;;;;;;;0.60;0.40;;;21.50;99.90;;;;;;5011634;28;20124;-38
2023/09/22 00:06:45;;;;;;;2.15;0.40;;;21.50;99.90;;;;;;5011868;28;20441;-39
2023/09/22 00:09:11;;;;;;;1.55;0.47;;;21.50;99.90;;;;;;5011765;28;20100;-39
2023/09/22 00:11:37;;;;;;;1.67;0.40;;;21.50;99.90;;;;;;5011569;28;20044;-39
2023/09/22 00:14:04;;;;;;;1.10;0.60;;;21.50;99.90;;;;;;5011528;28;20038;-41
2023/09/22 00:16:30;;;;;;;0.70;0.40;;;21.50;99.90;;;;;;5011322;28;20494;-40
2023/09/22 00:18:55;;;;;;;1.00;0.50;;;21.50;99.90;;;;;;5011496;28;20490;-40
2023/09/22 00:21:21;;;;;;;0.85;0.45;;;21.50;99.90;;;;;;5012120;28;20026;-38
2023/09/22 00:23:47;;;;;;;1.85;0.40;;;21.50;99.90;;;;;;5015595;28;20303;-38
2023/09/22 00:26:13;;;;;;;0.80;0.50;;;21.50;99.90;;;;;;5015394;28;20048;-38
2023/09/22 00:28:39;;;;;;;0.98;0.50;;;21.50;99.90;;;;;;5015605;28;20057;-39
2023/09/22 00:31:04;;;;;;;2.50;0.52;;;21.50;99.90;;;;;;5015411;28;20021;-38
2023/09/22 00:33:30;;;;;;;0.60;0.47;;;21.50;99.90;;;;;;5015071;28;20509;-40
2023/09/22 00:36:03;;;;;;;1.00;0.50;;;21.50;99.90;;;;;;5015017;28;20018;-39
2023/09/22 00:38:29;;;;;;;0.30;0.30;;;21.50;99.90;;;;;;5015255;28;20025;-39
2023/09/22 00:40:55;;;;;;;0.98;0.50;;;21.50;99.90;;;;;;5014974;28;20426;-38
2023/09/22 00:43:21;;;;;;;1.17;0.50;;;21.50;99.90;;;;;;5015138;28;20084;-38
2023/09/22 00:45:50;;;;;;;0.98;0.45;;;21.50;99.90;;;;;;5014858;28;20483;-38
2023/09/22 00:48:36;;;;;;;2.58;0.60;;;21.40;99.90;;;;;;5014959;28;20430;-38
2023/09/22 00:51:02;;;;;;;1.17;0.52;;;21.40;99.90;;;;;;5015041;28;20025;-40
2023/09/22 00:53:31;;;;;;;1.48;0.60;;;21.40;99.90;;;;;;5014844;28;20057;-40
2023/09/22 00:55:57;;;;;;;0.90;0.55;;;21.40;99.90;;;;;;5014606;28;20040;-39
2023/09/22 00:58:23;;;;;;;6.85;0.60;;;21.40;99.90;;;;;;5014652;28;20053;-38
2023/09/22 01:00:49;;;;;;;1.48;0.40;;;21.40;99.90;;;;;;5014608;28;20049;-40
2023/09/22 01:03:16;;;;;;;1.45;0.43;;;21.40;99.90;;;;;;5014897;28;20022;-38
2023/09/22 01:05:42;;;;;;;0.40;0.30;;;21.40;99.90;;;;;;5014513;28;20029;-38
2023/09/22 01:08:08;;;;;;;1.05;0.60;;;21.40;99.90;;;;;;5014635;28;20026;-38
2023/09/22 01:10:37;;;;;;;1.63;0.50;;;21.40;99.90;;;;;;5014563;28;20080;-39
2023/09/22 01:13:04;;;;;;;0.60;0.40;;;21.40;99.90;;;;;;5014383;28;20033;-38
2023/09/22 01:15:33;;;;;;;1.23;0.40;;;21.40;99.90;;;;;;5014477;28;20029;-38
2023/09/22 01:17:59;;;;;;;0.65;0.50;;;21.40;99.90;;;;;;5014433;28;20084;-39
2023/09/22 01:20:25;;;;;;;1.95;0.60;;;21.40;99.90;;;;;;5014328;28;20562;-39
2023/09/22 01:22:51;;;;;;;1.73;0.60;;;21.40;99.90;;;;;;5014378;28;20029;-38
2023/09/22 01:25:17;;;;;;;0.55;0.40;;;21.40;99.90;;;;;;5014692;28;20383;-38
2023/09/22 01:27:42;;;;;;;2.50;0.40;;;21.40;99.90;;;;;;5014578;28;20022;-38
2023/09/22 01:30:09;;;;;;;3.20;0.60;;;21.40;99.90;;;;;;5014394;28;20018;-39
2023/09/22 01:32:37;;;;;;;1.52;0.52;;;21.40;99.90;;;;;;5013875;28;20021;-41
2023/09/22 01:35:04;;;;;;;0.80;0.50;;;21.40;99.90;;;;;;5013973;28;20437;-38
2023/09/22 01:37:36;;;;;;;0.90;0.60;;;21.40;99.90;;;;;;5013925;28;20081;-38
2023/09/22 01:40:02;;;;;;;1.92;0.43;;;21.40;99.90;;;;;;5014000;28;20134;-38
2023/09/22 01:42:27;;;;;;;1.13;0.50;;;21.40;99.90;;;;;;5013807;28;20535;-40
2023/09/22 01:44:53;;;;;;;1.98;0.50;;;21.40;99.90;;;;;;5013826;28;20057;-39
2023/09/22 01:47:18;;;;;;;0.82;0.50;;;21.40;99.90;;;;;;5013922;28;20375;-38
2023/09/22 01:49:44;;;;;;;3.53;0.70;;;21.40;99.90;;;;;;5013887;28;20102;-39
2023/09/22 01:52:10;;;;;;;1.30;0.50;;;21.30;99.90;;;;;;5013774;28;20033;-38
2023/09/22 01:54:35;;;;;;;0.73;0.40;;;21.40;99.90;;;;;;5013509;28;20060;-39
2023/09/22 01:57:01;;;;;;;0.98;0.50;;;21.40;99.90;;;;;;5014074;28;20080;-38
2023/09/22 01:59:26;;;;;;;0.88;0.50;;;21.30;99.90;;;;;;5013810;28;20025;-40
2023/09/22 02:01:52;;;;;;;3.00;0.70;;;21.40;99.90;;;;;;5013484;28;20088;-39
2023/09/22 02:04:18;;;;;;;2.70;0.70;;;21.30;99.90;;;;;;5013569;28;20034;-40
2023/09/22 02:06:44;;;;;;;0.75;0.40;;;21.40;99.90;;;;;;5013430;28;20108;-39
2023/09/22 02:09:10;;;;;;;1.38;0.50;;;21.30;99.90;;;;;;5013434;28;20021;-40
2023/09/22 02:11:35;;;;;;;0.60;0.50;;;21.30;99.90;;;;;;5013373;28;20034;-38
2023/09/22 02:14:01;;;;;;;0.98;0.50;;;21.30;99.90;;;;;;5013694;28;20084;-39
2023/09/22 02:16:27;;;;;;;0.88;0.40;;;21.30;99.90;;;;;;5013281;28;20018;-39
2023/09/22 02:18:52;;;;;;;0.73;0.50;;;21.30;99.90;;;;;;5013347;28;20434;-38
2023/09/22 02:21:18;;;;;;;0.90;0.38;;;21.30;99.90;;;;;;5013165;28;20433;-38
2023/09/22 02:23:43;;;;;;;0.90;0.47;;;21.30;99.90;;;;;;5013092;28;20033;-39
2023/09/22 02:26:09;;;;;;;3.15;0.50;;;21.30;99.90;;;;;;5011665;28;20026;-39
2023/09/22 02:28:35;;;;;;;3.05;0.77;;;21.30;99.90;;;;;;5013086;28;20052;-39
2023/09/22 02:31:01;;;;;;;1.17;0.60;;;21.30;99.90;;;;;;5012965;28;20034;-40
2023/09/22 02:33:29;;;;;;;0.88;0.43;;;21.30;99.90;;;;;;5012968;28;20033;-38
2023/09/22 02:35:54;;;;;;;0.70;0.40;;;21.30;99.90;;;;;;5012826;28;20030;-40
2023/09/22 02:38:20;;;;;;;0.90;0.40;;;21.30;99.90;;;;;;5012863;28;20403;-38
2023/09/22 02:40:45;;;;;;;0.88;0.55;;;21.30;99.90;;;;;;5012635;28;20387;-38
2023/09/22 02:43:11;;;;;;;0.85;0.50;;;21.20;99.90;;;;;;5012740;28;20061;-40
2023/09/22 02:45:38;;;;;;;2.58;0.55;;;21.30;99.90;;;;;;5011972;28;20526;-40
2023/09/22 02:48:05;;;;;;;0.80;0.50;;;21.20;99.90;;;;;;5012745;28;20022;-38
2023/09/22 02:50:30;;;;;;;0.70;0.50;;;21.30;99.90;;;;;;5012722;28;20399;-38
2023/09/22 02:52:56;;;;;;;1.13;0.60;;;21.20;99.90;;;;;;5012562;28;20479;-39
2023/09/22 02:55:21;;;;;;;0.93;0.60;;;21.20;99.90;;;;;;5012477;28;20026;-39
2023/09/22 02:57:47;;;;;;;1.10;0.52;;;21.20;99.90;;;;;;5012737;28;20471;-40
2023/09/22 03:00:18;;;;;;;1.88;0.52;;;21.20;99.90;;;;;;5012559;28;20032;-38
2023/09/22 03:02:43;;;;;;;0.55;0.30;;;21.20;99.90;;;;;;5012494;28;20511;-39
2023/09/22 03:05:10;;;;;;;0.73;0.40;;;21.20;99.90;;;;;;5012327;28;20030;-38
2023/09/22 03:07:36;;;;;;;1.60;0.52;;;21.30;99.90;;;;;;5012219;28;20052;-39
2023/09/22 03:10:05;;;;;;;0.60;0.40;;;21.30;99.90;;;;;;5012410;28;20034;-39
2023/09/22 03:12:30;;;;;;;0.70;0.50;;;21.30;99.90;;;;;;5012222;28;20545;-38
2023/09/22 03:14:56;;;;;;;0.60;0.35;;;21.20;99.90;;;;;;5012107;28;20065;-39
2023/09/22 03:17:21;;;;;;;0.70;0.50;;;21.30;99.90;;;;;;5012241;28;20037;-40
2023/09/22 03:19:47;;;;;;;0.82;0.60;;;21.20;99.90;;;;;;5012299;28;20053;-39
2023/09/22 03:22:13;;;;;;;1.00;0.50;;;21.20;99.90;;;;;;5011963;28;20060;-38
2023/09/22 03:24:38;;;;;;;1.67;0.43;;;21.20;99.90;;;;;;5012042;28;20022;-38
2023/09/22 03:27:04;;;;;;;1.42;0.50;;;21.20;99.90;;;;;;5012061;28;20058;-40
2023/09/22 03:29:30;;;;;;;0.63;0.40;;;21.20;99.90;;;;;;5012106;28;20038;-38
2023/09/22 03:31:55;;;;;;;1.52;0.50;;;21.20;99.90;;;;;;5011960;28;20022;-38
2023/09/22 03:34:21;;;;;;;0.85;0.60;;;21.20;99.90;;;;;;5011849;28;20053;-38
2023/09/22 03:36:49;;;;;;;0.82;0.65;;;21.20;99.90;;;;;;5011735;28;20026;-38
2023/09/22 03:39:15;;;;;;;0.73;0.43;;;21.20;99.90;;;;;;5011927;28;20101;-38
2023/09/22 03:41:42;;;;;;;0.77;0.57;;;21.20;99.90;;;;;;5040515;23;20218;-41
2023/09/22 03:44:08;;;;;;;0.70;0.60;;;21.20;99.90;;;;;;5031520;28;20474;-40
2023/09/22 03:46:33;;;;;;;0.57;0.47;;;21.20;99.90;;;;;;5031380;28;20183;-40
2023/09/22 03:48:59;;;;;;;0.90;0.50;;;21.20;99.90;;;;;;5031562;28;20120;-39
2023/09/22 03:51:25;;;;;;;0.70;0.55;;;21.20;99.90;;;;;;5031391;28;20398;-39
2023/09/22 03:53:50;;;;;;;1.70;0.60;;;21.10;99.90;;;;;;5031454;28;20029;-42
2023/09/22 03:56:16;;;;;;;0.82;0.60;;;21.10;99.90;;;;;;5031231;28;20021;-39
2023/09/22 03:58:42;;;;;;;2.20;0.70;;;21.10;99.90;;;;;;5031481;28;20124;-39
2023/09/22 04:01:08;;;;;;;0.50;0.40;;;21.10;99.90;;;;;;5031356;28;20021;-40
2023/09/22 04:03:34;;;;;;;0.85;0.60;;;21.20;99.90;;;;;;5031401;28;20108;-40
2023/09/22 04:06:01;;;;;;;1.20;0.50;;;21.10;99.90;;;;;;5031013;28;20108;-38
2023/09/22 04:08:26;;;;;;;1.23;0.50;;;21.10;99.90;;;;;;5031362;28;20064;-38
2023/09/22 04:10:52;;;;;;;1.00;0.43;;;21.10;99.90;;;;;;5031158;28;20474;-38
2023/09/22 04:13:18;;;;;;;0.60;0.43;;;21.10;99.90;;;;;;5031180;28;20029;-42
2023/09/22 04:15:45;;;;;;;0.95;0.47;;;21.10;99.90;;;;;;5031031;28;20014;-40
2023/09/22 04:18:11;;;;;;;0.95;0.70;;;21.10;99.90;;;;;;5031234;28;20025;-39
2023/09/22 04:20:43;;;;;;;0.50;0.50;;;21.10;99.90;;;;;;5031075;28;20109;-39
2023/09/22 04:23:10;;;;;;;1.15;0.60;;;21.10;99.90;;;;;;5031214;28;20080;-38
2023/09/22 04:25:37;;;;;;;1.05;0.60;;;21.10;99.90;;;;;;5030914;28;20402;-40
2023/09/22 04:28:11;;;;;;;0.50;0.40;;;21.10;99.90;;;;;;5031161;28;20017;-39
2023/09/22 04:30:38;;;;;;;0.75;0.60;;;21.10;99.90;;;;;;5031200;28;20102;-39
2023/09/22 04:33:04;;;;;;;2.28;0.60;;;21.10;99.90;;;;;;5030931;28;20030;-38
2023/09/22 04:35:34;;;;;;;1.08;0.68;;;21.10;99.90;;;;;;5030905;28;20076;-39
2023/09/22 04:38:01;;;;;;;3.95;0.68;;;21.10;99.90;;;;;;5031046;28;20018;-41
2023/09/22 04:40:29;;;;;;;1.13;0.43;;;21.10;99.90;;;;;;5031070;28;20033;-39
2023/09/22 04:42:55;;;;;;;1.25;0.60;;;21.10;99.90;;;;;;5030814;28;20026;-39
2023/09/22 04:45:22;;;;;;;0.80;0.45;;;21.10;99.90;;;;;;5030678;28;20037;-39
2023/09/22 04:47:49;;;;;;;2.33;0.70;;;21.10;99.90;;;;;;5030885;28;20036;-40
2023/09/22 04:50:17;;;;;;;0.93;0.45;;;21.10;99.90;;;;;;5030904;28;20057;-40
2023/09/22 04:52:46;;;;;;;1.15;0.68;;;21.10;99.90;;;;;;5030773;28;20489;-39
2023/09/22 04:55:12;;;;;;;0.63;0.40;;;21.10;99.90;;;;;;5030636;28;20033;-38
2023/09/22 04:57:38;;;;;;;1.60;0.70;;;21.10;99.90;;;;;;5030760;28;20101;-41
2023/09/22 05:00:09;;;;;;;0.60;0.55;;;21.10;99.90;;;;;;5030772;28;20072;-40
2023/09/22 05:02:35;;;;;;;0.98;0.60;;;21.10;99.90;;;;;;5030689;28;20024;-41
2023/09/22 05:05:01;;;;;;;1.38;0.50;;;21.10;99.90;;;;;;5030685;28;20029;-39
2023/09/22 05:07:28;;;;;;;2.25;0.60;;;21.10;99.90;;;;;;5031473;28;20155;-40
2023/09/22 05:09:54;;;;;;;0.65;0.50;;;21.10;99.90;;;;;;5034366;28;20064;-42
2023/09/22 05:12:19;;;;;;;1.17;0.60;;;21.10;99.90;;;;;;5034359;28;20505;-38
2023/09/22 05:14:45;;;;;;;0.73;0.52;;;21.10;99.90;;;;;;5034042;28;20044;-40
2023/09/22 05:17:12;;;;;;;2.00;0.73;;;21.10;99.90;;;;;;5034136;28;20025;-40
2023/09/22 05:19:38;;;;;;;0.60;0.43;;;21.00;99.90;;;;;;5034459;28;20029;-40
2023/09/22 05:22:04;;;;;;;2.47;0.52;;;21.10;99.90;;;;;;5034088;28;20075;-39
2023/09/22 05:24:31;;;;;;;1.05;0.50;;;21.10;99.90;;;;;;5033913;28;20494;-41
2023/09/22 05:26:56;;;;;;;1.52;0.50;;;21.10;99.90;;;;;;5033975;28;20104;-42
2023/09/22 05:29:22;;;;;;;2.45;0.60;;;21.10;99.90;;;;;;5033977;28;20108;-40
2023/09/22 05:31:48;;;;;;;0.85;0.45;;;21.00;99.90;;;;;;5034287;28;20475;-40
2023/09/22 05:34:14;;;;;;;1.10;0.50;;;21.10;99.90;;;;;;5033978;28;20092;-39
2023/09/22 05:36:42;;;;;;;0.73;0.60;;;21.00;99.90;;;;;;5033988;28;20425;-38
2023/09/22 05:39:08;;;;;;;2.95;0.52;;;21.00;99.90;;;;;;5033873;28;20426;-40
2023/09/22 05:41:34;;;;;;;1.05;0.50;;;21.00;99.90;;;;;;5033727;28;20371;-40
2023/09/22 05:44:00;;;;;;;1.33;0.68;;;21.00;99.90;;;;;;5033704;28;20115;-42
2023/09/22 05:46:26;;;;;;;0.68;0.47;;;21.00;99.90;;;;;;5033749;28;20025;-40
2023/09/22 05:48:52;;;;;;;1.35;0.50;;;21.00;99.90;;;;;;5034121;28;20382;-40
2023/09/22 05:51:19;;;;;;;0.65;0.40;;;21.00;99.90;;;;;;5033522;28;20061;-39
2023/09/22 05:53:44;;;;;;;0.68;0.57;;;21.00;99.90;;;;;;5033562;28;20025;-40
2023/09/22 05:56:11;;;;;;;1.63;0.50;;;21.00;99.90;;;;;;5033530;28;20030;-40
2023/09/22 05:58:37;;;;;;;1.00;0.63;;;21.00;99.90;;;;;;5033607;28;20112;-41
2023/09/22 06:01:08;;;;;;;2.40;0.40;;;21.00;99.90;;;;;;5033661;28;20036;-41
2023/09/22 06:03:38;;;;;;;1.70;0.70;;;21.00;99.90;;;;;;5033555;28;20040;-39
2023/09/22 06:06:14;;;;;;;2.15;0.90;;;21.00;99.90;;;;;;5033159;28;20018;-39
2023/09/22 06:08:41;;;;;;;1.00;0.50;;;21.00;99.90;;;;;;5033338;28;20040;-39
2023/09/22 06:11:08;;;;;;;1.55;0.60;;;21.00;99.90;;;;;;5033174;28;20152;-40
2023/09/22 06:13:34;;;;;;;0.93;0.60;;;21.00;99.90;;;;;;5033209;28;20029;-39
2023/09/22 06:16:04;;;;;;;2.90;0.40;;;21.00;99.90;;;;;;5033056;28;20470;-43
2023/09/22 06:18:30;;;;;;;0.77;0.52;;;21.00;99.90;;;;;;5032736;28;20034;-38
2023/09/22 06:21:00;;;;;;;0.82;0.50;;;21.00;99.90;;;;;;5032490;28;20372;-39
2023/09/22 06:23:27;;;;;;;1.88;0.60;;;21.00;99.90;;;;;;5033485;28;20099;-37
2023/09/22 06:25:59;;;;;;;0.57;0.40;;;21.00;99.90;;;;;;5015148;28;20029;-39
2023/09/22 06:28:25;;;;;;;1.00;0.50;;;21.00;99.90;;;;;;5032888;28;20116;-39
2023/09/22 06:30:52;;;;;;;1.10;0.65;;;20.90;99.90;;;;;;5032833;28;20457;-38
2023/09/22 06:33:18;;;;;;;1.17;0.50;;;20.90;99.90;;;;;;5032754;28;20100;-39
2023/09/22 06:35:45;;;;;;;0.55;0.50;;;20.90;99.90;;;;;;5032610;28;20389;-42
2023/09/22 06:38:11;;;;;;;0.80;0.60;;;20.90;99.90;;;;;;5032652;28;20104;-38
2023/09/22 06:40:37;;;;;;;0.75;0.47;;;20.90;99.90;;;;;;5032696;28;20024;-42
2023/09/22 06:43:04;;;;;;;1.27;0.80;;;20.90;99.90;;;;;;5032593;28;20116;-38
2023/09/22 06:45:33;;;;;;;1.20;0.60;;;20.90;99.90;;;;;;5032386;28;20021;-39
2023/09/22 06:47:59;;;;;;;1.15;0.75;;;20.90;99.90;;;;;;5032577;28;20022;-39
2023/09/22 06:50:26;;;;;;;0.98;0.55;;;20.90;99.90;;;;;;5032861;28;20423;-39
2023/09/22 06:52:51;;;;;;;1.40;0.40;;;20.90;99.90;;;;;;5032335;28;20459;-40
2023/09/22 06:55:18;;;;;;;1.15;0.50;;;20.90;99.90;;;;;;5032267;28;20029;-41
2023/09/22 06:57:44;;;;;;;1.45;0.50;;;20.90;99.90;;;;;;5032529;28;20025;-41
2023/09/22 07:00:18;;;;;;;0.57;0.45;;;20.90;99.90;;;;;;4967271;28;20067;-39
2023/09/22 07:02:46;;;;;;;0.90;0.50;;;20.90;99.90;;;;;;5021685;28;20045;-39
2023/09/22 07:05:12;;;;;;;0.55;0.43;;;20.90;99.90;;;;;;5012273;28;20030;-39
2023/09/22 07:07:38;;;;;;;1.60;0.50;;;20.90;99.90;;;;;;5012349;28;20022;-39
2023/09/22 07:10:10;;;;;;;1.40;0.60;;;20.90;99.90;;;;;;5013278;28;20491;-40
2023/09/22 07:12:42;;;;;;;0.68;0.40;;;20.90;99.90;;;;;;5012352;28;20026;-40
2023/09/22 07:15:09;;;;;;;1.52;0.70;;;20.90;99.90;;;;;;5012206;28;20116;-41
2023/09/22 07:17:34;;;;;;;0.82;0.68;;;20.90;99.90;;;;;;5012279;28;20527;-39
2023/09/22 07:20:01;;;;;;;2.10;0.60;;;20.90;99.90;;;;;;5013249;28;20069;-40
2023/09/22 07:22:36;;;;;;;2.58;0.50;;;20.90;99.90;;;;;;5012641;28;20029;-41
2023/09/22 07:25:03;;;;;;;0.95;0.43;;;20.90;99.90;;;;;;4995286;28;20041;-38
2023/09/22 07:27:29;;;;;;;1.20;0.60;;;20.90;99.90;;;;;;5018132;28;20403;-40
2023/09/22 07:29:54;;;;;;;2.92;0.50;;;20.90;99.90;;;;;;5011964;28;20025;-40
2023/09/22 07:32:21;;;;;;;4.38;0.88;;;;;;;;;;5011951;28;20541;-39
2023/09/22 07:34:49;;;;;;;5.38;0.80;;;20.60;99.90;;;;;;5011803;28;20492;-38
2023/09/22 07:37:16;;;;;;;1.92;0.70;;;20.20;99.90;;;;;;5012016;28;20018;-38
2023/09/22 07:39:42;;;;;;;6.18;0.90;;;20.10;99.90;;;;;;5012002;28;20030;-41
2023/09/22 07:42:09;;;;;;;1.92;0.70;;;20.10;99.90;;;;;;5023499;28;20172;-38
2023/09/22 07:44:37;;;;;;;2.40;0.77;;;20.20;99.90;;;;;;5031450;28;20029;-40
2023/09/22 07:47:10;;;;;;;2.53;0.85;;;20.20;99.90;;;;;;5031410;28;20118;-39
2023/09/22 07:49:36;;;;;;;1.63;0.80;;;20.30;99.90;;;;;;5031568;28;20482;-38
2023/09/22 07:52:02;;;;;;;2.78;0.80;;;20.30;99.90;;;;;;5031391;28;20050;-38
2023/09/22 07:54:28;;;;;;;1.08;0.75;;;20.40;99.90;;;;;;5031285;28;20026;-38
2023/09/22 07:56:54;;;;;;;1.63;0.55;;;20.40;99.90;;;;;;5031389;28;20379;-39
2023/09/22 07:59:19;;;;;;;2.65;0.75;;;20.40;99.90;;;;;;5031844;28;20021;-42
2023/09/22 08:01:45;;;;;;;1.83;0.70;;;20.40;99.90;;;;;;5031357;28;20025;-40
2023/09/22 08:04:11;;;;;;;2.15;0.75;;;20.50;99.90;;;;;;5031343;28;20041;-39
2023/09/22 08:06:37;;;;;;;1.27;0.60;;;20.50;99.90;;;;;;5031194;28;20451;-38
2023/09/22 08:09:06;;;;;;;0.90;0.60;;;20.50;99.90;;;;;;5031291;28;20039;-40
2023/09/22 08:11:32;;;;;;;3.35;0.70;;;20.50;99.90;;;;;;5031110;28;20033;-39
2023/09/22 08:13:58;;;;;;;1.77;0.77;;;20.60;99.90;;;;;;5031110;28;20022;-37
2023/09/22 08:16:25;;;;;;;3.08;0.85;;;20.60;99.90;;;;;;5031067;28;20021;-40
2023/09/22 08:18:51;;;;;;;2.22;0.90;;;20.40;99.90;;;;;;5031247;28;20034;-37
2023/09/22 08:21:17;;;;;;;2.17;0.90;;;20.00;99.90;;;;;;5031059;28;20032;-40
2023/09/22 08:23:43;;;;;;;1.98;0.82;;;19.90;99.90;;;;;;5031240;28;20061;-40
2023/09/22 08:26:08;;;;;;;4.30;0.85;;;19.80;99.90;;;;;;5030968;28;20026;-40
2023/09/22 08:28:34;;;;;;;3.47;0.90;;;19.80;99.90;;;;;;5031073;28;20030;-40
2023/09/22 08:31:00;;;;;;;2.35;0.60;;;19.80;99.90;;;;;;5031211;28;20029;-40
2023/09/22 08:33:26;;;;;;;4.88;1.00;;;19.90;99.90;;;;;;5031272;28;20467;-41
2023/09/22 08:35:52;;;;;;;2.20;0.80;;;19.90;99.90;;;;;;5031064;28;20034;-41
2023/09/22 08:38:18;;;;;;;3.13;1.00;;;20.00;99.90;;;;;;5031034;28;20028;-40
2023/09/22 08:40:48;;;;;;;2.97;0.80;;;20.00;99.90;;;;;;5030911;28;20394;-41
2023/09/22 08:43:14;;;;;;;1.45;0.60;;;20.00;99.90;;;;;;5033078;28;20029;-39
2023/09/22 08:45:40;;;;;;;2.72;0.60;;;20.00;99.90;;;;;;5034703;28;20049;-41
2023/09/22 08:48:06;;;;;;;0.85;0.57;;;20.10;99.90;;;;;;5034856;28;20021;-39
2023/09/22 08:50:31;;;;;;;0.95;0.70;;;20.10;99.90;;;;;;5034704;28;20509;-37
2023/09/22 08:52:57;;;;;;;2.30;0.60;;;20.20;99.90;;;;;;5034623;28;20032;-39
2023/09/22 08:55:23;;;;;;;3.20;0.80;;;20.20;99.90;;;;;;5034347;28;20021;-41
2023/09/22 08:57:51;;;;;;;2.90;0.70;;;20.20;99.90;;;;;;5035077;28;20053;-40
2023/09/22 09:00:26;;;;;;;2.40;0.50;;;20.20;99.90;;;;;;5034591;28;20024;-41
2023/09/22 09:02:55;;;;;;;2.28;0.85;;;20.20;99.90;;;;;;5016656;28;20021;-37
2023/09/22 09:05:28;;;;;;;1.00;0.43;;;20.30;99.90;;;;;;5034307;28;20029;-40
2023/09/22 09:08:15;;;;;;;1.02;0.60;;;20.20;99.90;;;;;;5034518;28;20100;-40
2023/09/22 09:10:43;;;;;;;1.23;0.60;;;20.30;99.90;;;;;;5034178;28;20042;-41
2023/09/22 09:13:17;;;;;;;4.80;0.60;;;20.30;99.90;;;;;;5034276;28;20018;-42
2023/09/22 09:15:47;;;;;;;1.95;0.60;;;20.30;99.90;;;;;;5034515;28;20084;-40
2023/09/22 09:18:19;;;;;;;4.20;0.73;;;20.30;99.90;;;;;;5034251;28;20033;-40
2023/09/22 09:20:47;;;;;;;1.25;0.60;;;20.40;99.90;;;;;;5034092;28;20490;-40
2023/09/22 09:23:15;;;;;;;1.48;0.70;;;20.40;99.90;;;;;;5034226;28;20036;-38
2023/09/22 09:25:45;;;;;;;0.82;0.50;;;20.40;99.90;;;;;;5034000;28;20624;-40
2023/09/22 09:28:12;;;;;;;1.38;0.60;;;20.40;99.90;;;;;;5034118;28;20057;-40
2023/09/22 09:30:39;;;;;;;1.42;0.60;;;20.40;99.90;;;;;;5034006;28;20021;-41
2023/09/22 09:33:09;;;;;;;1.23;0.60;;;20.40;99.90;;;;;;5033797;28;20029;-40
2023/09/22 09:35:39;;;;;;;1.25;0.65;;;20.40;99.90;;;;;;5033763;28;20503;-40
2023/09/22 09:38:06;;;;;;;0.77;0.47;;;20.40;99.90;;;;;;5034120;28;20031;-40
2023/09/22 09:40:37;;;;;;;1.65;0.45;;;20.50;99.90;;;;;;5034068;28;20104;-39
2023/09/22 09:43:06;;;;;;;1.02;0.50;;;20.50;99.90;;;;;;5034184;28;20490;-40
2023/09/22 09:45:34;;;;;;;1.85;0.70;;;20.50;99.90;;;;;;5033981;28;20030;-40
2023/09/22 09:48:03;;;;;;;1.13;0.60;;;20.50;99.90;;;;;;5033719;28;20044;-41
2023/09/22 09:50:33;;;;;;;1.85;0.43;;;20.50;99.90;;;;;;5033669;28;20108;-40
2023/09/22 09:53:06;;;;;;;0.95;0.60;;;20.50;99.90;;;;;;5033359;28;20461;-37
2023/09/22 09:55:35;;;;;;;1.83;0.70;;;20.50;99.90;;;;;;5033512;28;20136;-38
2023/09/22 09:58:02;;;;;;;0.45;0.40;;;20.60;99.90;;;;;;5033950;28;20075;-40
2023/09/22 10:00:28;;;;;;;0.80;0.50;;;20.50;99.90;;;;;;5033543;28;20028;-39
2023/09/22 10:02:58;;;;;;;1.08;0.47;;;20.60;99.90;;;;;;5033311;28;20371;-44
2023/09/22 10:05:24;;;;;;;1.85;0.73;;;20.50;99.90;;;;;;5033336;28;20100;-37
2023/09/22 10:07:56;;;;;;;0.77;0.50;;;20.60;99.90;;;;;;5033405;28;20131;-40
2023/09/22 10:10:22;;;;;;;1.48;0.70;;;20.60;99.90;;;;;;5033328;28;20036;-41
2023/09/22 10:12:49;;;;;;;1.85;0.60;;;20.60;99.90;;;;;;5033126;28;20033;-40
2023/09/22 10:15:15;;;;;;;0.80;0.60;;;20.60;99.90;;;;;;5015262;28;20041;-40
2023/09/22 10:17:41;;;;;;;0.80;0.50;;;20.60;99.90;;;;;;5033050;28;20022;-42
2023/09/22 10:20:11;;;;;;;0.73;0.40;;;20.60;99.90;;;;;;5033169;28;20100;-43
2023/09/22 10:22:41;;;;;;;0.73;0.40;;;20.70;99.90;;;;;;5033075;28;20025;-40
2023/09/22 10:25:21;;;;;;;1.02;0.60;;;20.70;99.90;;;;;;5032907;28;20060;-41
2023/09/22 10:27:59;;;;;;;0.70;0.50;;;20.70;99.90;;;;;;5033373;28;20047;-39
2023/09/22 10:30:45;;;;;;;0.77;0.50;;;20.70;99.90;;;;;;5015182;28;20029;-39
2023/09/22 10:33:23;;;;;;;0.68;0.32;;;20.70;99.90;;;;;;5032765;28;20028;-41
2023/09/22 10:35:49;;;;;;;1.10;0.50;;;20.70;99.90;;;;;;5032760;28;20025;-41
2023/09/22 10:38:15;;;;;;;0.90;0.60;;;20.80;99.90;;;;;;5032790;28;20379;-39
2023/09/22 10:40:59;;;;;;;1.17;0.40;;;20.80;99.90;;;;;;5032552;28;20106;-40
2023/09/22 10:43:26;;;;;;;0.93;0.38;;;20.80;99.90;;;;;;5032740;28;20490;-40
2023/09/22 10:45:52;;;;;;;1.83;0.55;;;20.80;99.90;;;;;;5032576;28;20048;-42
2023/09/22 10:48:18;;;;;;;0.90;0.50;;;20.80;99.90;;;;;;5032587;28;20104;-39
2023/09/22 10:50:49;;;;;;;1.17;0.60;;;20.80;99.90;;;;;;5014905;28;20026;-39
2023/09/22 10:53:15;;;;;;;0.85;0.35;;;20.80;99.90;;;;;;5032602;28;20049;-42
2023/09/22 10:55:43;;;;;;;0.68;0.50;;;20.80;99.90;;;;;;5014533;28;20029;-41
2023/09/22 10:58:09;;;;;;;0.88;0.45;;;20.90;99.90;;;;;;5032440;28;20525;-41
2023/09/22 11:00:42;;;;;;;0.60;0.22;;;20.90;99.90;;;;;;5032452;28;20030;-43
2023/09/22 11:03:10;;;;;;;0.82;0.52;;;20.90;99.90;;;;;;5032304;28;20018;-38
2023/09/22 11:05:41;;;;;;;1.55;0.70;;;20.90;99.90;;;;;;5031577;28;20071;-40
2023/09/22 11:08:12;;;;;;;0.57;0.40;;;20.90;99.90;;;;;;5032256;28;20659;-38
2023/09/22 11:10:38;;;;;;;1.20;0.50;;;21.00;99.90;;;;;;5032240;28;20026;-45
2023/09/22 11:13:04;;;;;;;0.77;0.45;;;21.00;99.90;;;;;;5032050;28;20505;-43
2023/09/22 11:15:29;;;;;;;0.82;0.40;;;21.00;99.90;;;;;;5031989;28;20068;-40
2023/09/22 11:17:55;;;;;;;0.98;0.50;;;21.00;99.90;;;;;;5033088;28;20017;-39
2023/09/22 11:20:26;;;;;;;0.90;0.60;;;21.00;99.90;;;;;;5032010;28;20029;-41
2023/09/22 11:22:52;;;;;;;0.77;0.50;;;21.00;99.90;;;;;;5031938;28;20030;-40
2023/09/22 11:25:19;;;;;;;0.50;0.30;;;21.00;99.90;;;;;;5031838;28;20022;-40
2023/09/22 11:27:49;;;;;;;1.25;0.40;;;21.00;99.90;;;;;;5031673;28;20030;-40
2023/09/22 11:30:26;;;;;;;0.60;0.40;;;21.00;99.90;;;;;;5031921;28;20029;-43
2023/09/22 11:32:52;;;;;;;1.25;0.70;;;21.00;99.90;;;;;;5031709;28;20104;-39
2023/09/22 11:35:39;;;;;;;1.30;0.52;;;20.90;99.90;;;;;;5031586;28;20033;-38
2023/09/22 11:38:28;;;;;;;2.13;0.65;;;20.90;99.90;;;;;;5031633;28;20486;-38
2023/09/22 11:41:08;;;;;;;4.35;0.68;;;20.90;99.90;;;;;;5031444;28;20505;-41
2023/09/22 11:43:36;;;;;;;1.75;0.60;;;21.00;99.90;;;;;;5031691;28;20113;-38
2023/09/22 11:46:16;;;;;;;2.13;0.60;;;21.10;99.90;;;;;;5031589;28;20033;-37
2023/09/22 11:49:00;;;;;;;1.55;0.57;;;21.10;99.90;;;;;;5031516;28;20043;-37
2023/09/22 11:51:45;;;;;;;1.80;0.70;;;21.20;99.90;;;;;;5031570;28;20109;-39
2023/09/22 11:54:13;;;;;;;2.42;0.52;;;21.20;99.90;;;;;;5031365;28;20129;-40
2023/09/22 11:56:40;;;;;;;1.77;0.82;;;21.20;99.90;;;;;;5031272;28;20014;-41
2023/09/22 11:59:06;;;;;;;4.45;0.75;;;21.20;99.90;;;;;;5031472;28;20451;-40
2023/09/22 12:01:32;;;;;;;2.72;0.65;;;21.30;99.90;;;;;;5031493;28;20030;-40
2023/09/22 12:03:58;;;;;;;1.88;0.68;;;21.20;99.90;;;;;;5031389;28;20379;-40
2023/09/22 12:06:24;;;;;;;2.25;0.68;;;21.30;99.90;;;;;;5031139;28;20037;-40
2023/09/22 12:08:49;;;;;;;2.05;0.50;;;21.30;99.90;;;;;;5031490;28;20108;-39
2023/09/22 12:11:15;;;;;;;1.33;0.63;;;21.30;99.90;;;;;;5031121;28;20026;-39
2023/09/22 12:13:41;;;;;;;0.77;0.50;;;21.30;99.90;;;;;;5031180;28;20121;-39
2023/09/22 12:16:07;;;;;;;1.48;0.60;;;21.40;99.90;;;;;;5031058;28;20036;-41
2023/09/22 12:18:32;;;;;;;1.58;0.57;;;21.40;99.90;;;;;;5034288;28;20343;-40
2023/09/22 12:20:58;;;;;;;1.63;0.60;;;21.40;99.90;;;;;;5035356;28;20447;-40
2023/09/22 12:23:24;;;;;;;1.33;0.60;;;21.40;99.90;;;;;;5035595;28;20532;-37
2023/09/22 12:25:52;;;;;;;1.52;0.50;;;21.40;99.90;;;;;;5035184;28;20127;-38
2023/09/22 12:28:18;;;;;;;1.67;0.75;;;21.50;99.90;;;;;;5035432;28;20065;-40
2023/09/22 12:30:44;;;;;;;1.35;0.55;;;21.50;99.90;;;;;;5017407;28;20398;-38
2023/09/22 12:33:11;;;;;;;1.65;0.60;;;21.50;99.90;;;;;;5035200;28;20021;-40
2023/09/22 12:35:38;;;;;;;1.95;0.80;;;21.50;99.90;;;;;;5035086;28;20026;-40
2023/09/22 12:38:04;;;;;;;1.88;0.60;;;21.50;99.90;;;;;;5035000;28;20021;-40
2023/09/22 12:40:30;;;;;;;5.68;0.80;;;21.50;99.90;;;;;;5034829;28;20017;-43
2023/09/22 12:42:56;;;;;;;3.38;1.05;;;21.00;99.90;;;;;;5035637;28;20494;-38
2023/09/22 12:45:22;;;;;;;3.58;1.10;;;21.00;99.90;;;;;;5034847;28;20518;-39
2023/09/22 12:47:49;;;;;;;3.72;0.93;;;21.00;99.90;;;;;;5035717;28;20025;-39
2023/09/22 12:50:15;;;;;;;3.05;1.00;;;21.00;99.90;;;;;;5035220;28;20100;-40